sensor_id;sensor_type;location;lat;lon;timestamp;P1;durP1;ratioP1;P2;durP2;ratioP2
16965;SDS011;8599;47.852;12.070;2022-09-17T00:01:15;4.70;;;2.30;;
16965;SDS011;8599;47.852;12.070;2022-09-17T00:03:43;3.27;;;2.10;;
16965;SDS011;8599;47.852;12.070;2022-09-17T00:06:14;3.10;;;1.73;;
16965;SDS011;8599;47.852;12.070;2022-09-17T00:08:41;4.40;;;2.07;;
16965;SDS011;8599;47.852;12.070;2022-09-17T00:11:08;2.80;;;2.00;;
16965;SDS011;8599;47.852;12.070;2022-09-17T00:13:38;4.20;;;1.67;;
16965;SDS011;8599;47.852;12.070;2022-09-17T00:16:06;3.87;;;2.03;;
16965;SDS011;8599;47.852;12.070;2022-09-17T00:18:33;11.13;;;2.13;;
16965;SDS011;8599;47.852;12.070;2022-09-17T00:21:05;3.63;;;1.60;;
16965;SDS011;8599;47.852;12.070;2022-09-17T00:23:32;3.20;;;1.73;;
16965;SDS011;8599;47.852;12.070;2022-09-17T00:25:59;6.63;;;1.67;;
16965;SDS011;8599;47.852;12.070;2022-09-17T00:28:31;2.23;;;1.43;;
16965;SDS011;8599;47.852;12.070;2022-09-17T00:30:58;2.00;;;1.47;;
16965;SDS011;8599;47.852;12.070;2022-09-17T00:33:26;2.87;;;1.40;;
16965;SDS011;8599;47.852;12.070;2022-09-17T00:35:57;1.60;;;1.50;;
16965;SDS011;8599;47.852;12.070;2022-09-17T00:38:24;1.40;;;1.30;;
16965;SDS011;8599;47.852;12.070;2022-09-17T00:40:51;4.30;;;1.57;;
16965;SDS011;8599;47.852;12.070;2022-09-17T00:43:30;2.20;;;1.60;;
16965;SDS011;8599;47.852;12.070;2022-09-17T00:46:02;2.73;;;1.60;;
16965;SDS011;8599;47.852;12.070;2022-09-17T00:48:32;2.73;;;1.50;;
16965;SDS011;8599;47.852;12.070;2022-09-17T00:50:58;4.13;;;1.50;;
16965;SDS011;8599;47.852;12.070;2022-09-17T00:53:27;3.97;;;1.70;;
16965;SDS011;8599;47.852;12.070;2022-09-17T00:55:56;1.50;;;1.30;;
16965;SDS011;8599;47.852;12.070;2022-09-17T00:58:27;2.90;;;1.60;;
16965;SDS011;8599;47.852;12.070;2022-09-17T01:00:54;2.97;;;1.50;;
16965;SDS011;8599;47.852;12.070;2022-09-17T01:03:21;5.27;;;1.60;;
16965;SDS011;8599;47.852;12.070;2022-09-17T01:05:51;2.83;;;1.63;;
16965;SDS011;8599;47.852;12.070;2022-09-17T01:08:27;6.90;;;1.80;;
16965;SDS011;8599;47.852;12.070;2022-09-17T01:11:07;2.50;;;1.87;;
16965;SDS011;8599;47.852;12.070;2022-09-17T01:13:47;4.77;;;1.60;;
16965;SDS011;8599;47.852;12.070;2022-09-17T01:16:25;3.17;;;1.40;;
16965;SDS011;8599;47.852;12.070;2022-09-17T01:19:02;3.60;;;1.50;;
16965;SDS011;8599;47.852;12.070;2022-09-17T01:21:41;2.40;;;1.50;;
16965;SDS011;8599;47.852;12.070;2022-09-17T01:27:20;1.60;;;1.50;;
16965;SDS011;8599;47.852;12.070;2022-09-17T01:30:18;4.83;;;1.70;;
16965;SDS011;8599;47.852;12.070;2022-09-17T01:32:57;3.40;;;1.50;;
16965;SDS011;8599;47.852;12.070;2022-09-17T01:35:31;3.83;;;1.90;;
16965;SDS011;8599;47.852;12.070;2022-09-17T01:38:05;3.73;;;1.77;;
16965;SDS011;8599;47.852;12.070;2022-09-17T01:40:38;4.43;;;1.80;;
16965;SDS011;8599;47.852;12.070;2022-09-17T01:43:11;2.57;;;1.73;;
16965;SDS011;8599;47.852;12.070;2022-09-17T01:45:48;2.20;;;1.67;;
16965;SDS011;8599;47.852;12.070;2022-09-17T01:48:17;3.90;;;1.67;;
16965;SDS011;8599;47.852;12.070;2022-09-17T01:50:46;1.77;;;1.53;;
16965;SDS011;8599;47.852;12.070;2022-09-17T01:53:17;2.30;;;1.60;;
16965;SDS011;8599;47.852;12.070;2022-09-17T01:55:47;4.27;;;1.60;;
16965;SDS011;8599;47.852;12.070;2022-09-17T01:58:17;3.17;;;1.40;;
16965;SDS011;8599;47.852;12.070;2022-09-17T02:00:51;3.27;;;1.30;;
16965;SDS011;8599;47.852;12.070;2022-09-17T02:03:21;3.17;;;1.57;;
16965;SDS011;8599;47.852;12.070;2022-09-17T02:05:55;5.20;;;1.70;;
16965;SDS011;8599;47.852;12.070;2022-09-17T02:08:27;3.57;;;1.50;;
16965;SDS011;8599;47.852;12.070;2022-09-17T02:11:02;1.77;;;1.37;;
16965;SDS011;8599;47.852;12.070;2022-09-17T02:13:33;2.23;;;1.63;;
16965;SDS011;8599;47.852;12.070;2022-09-17T02:16:06;4.43;;;1.40;;
16965;SDS011;8599;47.852;12.070;2022-09-17T02:18:38;3.33;;;1.40;;
16965;SDS011;8599;47.852;12.070;2022-09-17T02:21:11;5.47;;;2.43;;
16965;SDS011;8599;47.852;12.070;2022-09-17T02:23:44;2.70;;;1.40;;
16965;SDS011;8599;47.852;12.070;2022-09-17T02:26:18;1.60;;;1.50;;
16965;SDS011;8599;47.852;12.070;2022-09-17T02:28:47;1.50;;;1.40;;
16965;SDS011;8599;47.852;12.070;2022-09-17T02:31:18;1.57;;;1.33;;
16965;SDS011;8599;47.852;12.070;2022-09-17T02:33:46;2.43;;;1.60;;
16965;SDS011;8599;47.852;12.070;2022-09-17T02:36:16;4.07;;;1.20;;
16965;SDS011;8599;47.852;12.070;2022-09-17T02:38:44;1.67;;;1.57;;
16965;SDS011;8599;47.852;12.070;2022-09-17T02:41:13;1.03;;;1.03;;
16965;SDS011;8599;47.852;12.070;2022-09-17T02:43:46;2.97;;;1.40;;
16965;SDS011;8599;47.852;12.070;2022-09-17T02:46:31;1.70;;;1.40;;
16965;SDS011;8599;47.852;12.070;2022-09-17T02:49:14;2.10;;;1.33;;
16965;SDS011;8599;47.852;12.070;2022-09-17T02:52:03;4.50;;;1.60;;
16965;SDS011;8599;47.852;12.070;2022-09-17T02:54:40;1.63;;;1.53;;
16965;SDS011;8599;47.852;12.070;2022-09-17T02:57:13;2.83;;;1.20;;
16965;SDS011;8599;47.852;12.070;2022-09-17T02:59:47;4.47;;;1.80;;
16965;SDS011;8599;47.852;12.070;2022-09-17T03:02:24;3.60;;;1.37;;
16965;SDS011;8599;47.852;12.070;2022-09-17T03:04:55;3.10;;;1.30;;
16965;SDS011;8599;47.852;12.070;2022-09-17T03:07:23;2.47;;;1.40;;
16965;SDS011;8599;47.852;12.070;2022-09-17T03:09:50;2.23;;;1.30;;
16965;SDS011;8599;47.852;12.070;2022-09-17T03:12:17;1.40;;;1.23;;
16965;SDS011;8599;47.852;12.070;2022-09-17T03:14:44;3.63;;;1.40;;
16965;SDS011;8599;47.852;12.070;2022-09-17T03:17:11;2.90;;;1.50;;
16965;SDS011;8599;47.852;12.070;2022-09-17T03:19:40;3.10;;;1.63;;
16965;SDS011;8599;47.852;12.070;2022-09-17T03:22:07;1.92;;;1.30;;
16965;SDS011;8599;47.852;12.070;2022-09-17T03:24:33;1.87;;;1.20;;
16965;SDS011;8599;47.852;12.070;2022-09-17T03:27:00;1.40;;;1.30;;
16965;SDS011;8599;47.852;12.070;2022-09-17T03:29:27;1.10;;;1.07;;
16965;SDS011;8599;47.852;12.070;2022-09-17T03:31:54;1.37;;;1.00;;
16965;SDS011;8599;47.852;12.070;2022-09-17T03:34:21;2.23;;;1.20;;
16965;SDS011;8599;47.852;12.070;2022-09-17T03:36:50;1.87;;;1.30;;
16965;SDS011;8599;47.852;12.070;2022-09-17T03:39:16;3.23;;;1.20;;
16965;SDS011;8599;47.852;12.070;2022-09-17T03:41:43;2.00;;;1.30;;
16965;SDS011;8599;47.852;12.070;2022-09-17T03:44:10;1.97;;;1.27;;
16965;SDS011;8599;47.852;12.070;2022-09-17T03:46:37;1.30;;;1.20;;
16965;SDS011;8599;47.852;12.070;2022-09-17T03:49:04;1.37;;;1.00;;
16965;SDS011;8599;47.852;12.070;2022-09-17T03:51:30;2.63;;;1.43;;
16965;SDS011;8599;47.852;12.070;2022-09-17T03:53:59;2.23;;;1.30;;
16965;SDS011;8599;47.852;12.070;2022-09-17T03:56:26;1.10;;;1.10;;
16965;SDS011;8599;47.852;12.070;2022-09-17T03:58:55;3.73;;;1.30;;
16965;SDS011;8599;47.852;12.070;2022-09-17T04:01:23;1.33;;;0.97;;
16965;SDS011;8599;47.852;12.070;2022-09-17T04:03:50;1.47;;;1.37;;
16965;SDS011;8599;47.852;12.070;2022-09-17T04:06:17;1.30;;;1.20;;
16965;SDS011;8599;47.852;12.070;2022-09-17T04:08:44;0.83;;;0.83;;
16965;SDS011;8599;47.852;12.070;2022-09-17T04:11:12;2.20;;;1.10;;
16965;SDS011;8599;47.852;12.070;2022-09-17T04:13:39;1.43;;;0.90;;
16965;SDS011;8599;47.852;12.070;2022-09-17T04:16:06;3.97;;;1.27;;
16965;SDS011;8599;47.852;12.070;2022-09-17T04:18:32;2.13;;;1.57;;
16965;SDS011;8599;47.852;12.070;2022-09-17T04:20:59;3.03;;;1.10;;
16965;SDS011;8599;47.852;12.070;2022-09-17T04:23:26;1.23;;;0.90;;
16965;SDS011;8599;47.852;12.070;2022-09-17T04:25:53;1.40;;;1.20;;
16965;SDS011;8599;47.852;12.070;2022-09-17T04:28:21;5.87;;;1.50;;
16965;SDS011;8599;47.852;12.070;2022-09-17T04:30:48;5.27;;;1.37;;
16965;SDS011;8599;47.852;12.070;2022-09-17T04:33:15;3.80;;;1.50;;
16965;SDS011;8599;47.852;12.070;2022-09-17T04:35:41;3.60;;;1.97;;
16965;SDS011;8599;47.852;12.070;2022-09-17T04:38:08;2.23;;;1.90;;
16965;SDS011;8599;47.852;12.070;2022-09-17T04:40:38;3.93;;;1.50;;
16965;SDS011;8599;47.852;12.070;2022-09-17T04:43:07;2.63;;;1.70;;
16965;SDS011;8599;47.852;12.070;2022-09-17T04:45:36;5.43;;;1.60;;
16965;SDS011;8599;47.852;12.070;2022-09-17T04:48:03;5.90;;;1.60;;
16965;SDS011;8599;47.852;12.070;2022-09-17T04:50:30;3.17;;;1.50;;
16965;SDS011;8599;47.852;12.070;2022-09-17T04:52:57;5.87;;;1.60;;
16965;SDS011;8599;47.852;12.070;2022-09-17T04:55:24;3.87;;;1.47;;
16965;SDS011;8599;47.852;12.070;2022-09-17T04:57:51;2.30;;;2.07;;
16965;SDS011;8599;47.852;12.070;2022-09-17T05:00:19;2.00;;;1.70;;
16965;SDS011;8599;47.852;12.070;2022-09-17T05:02:49;2.87;;;1.40;;
16965;SDS011;8599;47.852;12.070;2022-09-17T05:05:16;3.63;;;1.53;;
16965;SDS011;8599;47.852;12.070;2022-09-17T05:07:44;6.53;;;1.77;;
16965;SDS011;8599;47.852;12.070;2022-09-17T05:10:11;2.20;;;2.00;;
16965;SDS011;8599;47.852;12.070;2022-09-17T05:12:39;1.47;;;1.37;;
16965;SDS011;8599;47.852;12.070;2022-09-17T05:15:06;3.13;;;1.67;;
16965;SDS011;8599;47.852;12.070;2022-09-17T05:17:33;3.37;;;1.87;;
16965;SDS011;8599;47.852;12.070;2022-09-17T05:20:02;2.87;;;1.90;;
16965;SDS011;8599;47.852;12.070;2022-09-17T05:22:28;4.17;;;1.90;;
16965;SDS011;8599;47.852;12.070;2022-09-17T05:24:55;3.27;;;1.67;;
16965;SDS011;8599;47.852;12.070;2022-09-17T05:27:22;6.30;;;2.20;;
16965;SDS011;8599;47.852;12.070;2022-09-17T05:29:49;7.93;;;2.07;;
16965;SDS011;8599;47.852;12.070;2022-09-17T05:32:16;4.90;;;2.17;;
16965;SDS011;8599;47.852;12.070;2022-09-17T05:34:42;1.93;;;1.60;;
16965;SDS011;8599;47.852;12.070;2022-09-17T05:37:11;3.73;;;1.40;;
16965;SDS011;8599;47.852;12.070;2022-09-17T05:39:38;5.60;;;1.60;;
16965;SDS011;8599;47.852;12.070;2022-09-17T05:42:05;3.93;;;2.00;;
16965;SDS011;8599;47.852;12.070;2022-09-17T05:44:32;3.83;;;1.87;;
16965;SDS011;8599;47.852;12.070;2022-09-17T05:46:59;9.80;;;3.93;;
16965;SDS011;8599;47.852;12.070;2022-09-17T05:49:25;6.57;;;3.87;;
16965;SDS011;8599;47.852;12.070;2022-09-17T05:51:52;11.37;;;5.70;;
16965;SDS011;8599;47.852;12.070;2022-09-17T05:54:20;6.80;;;3.53;;
16965;SDS011;8599;47.852;12.070;2022-09-17T05:56:47;5.17;;;3.00;;
16965;SDS011;8599;47.852;12.070;2022-09-17T05:59:17;3.53;;;2.40;;
16965;SDS011;8599;47.852;12.070;2022-09-17T06:01:44;3.23;;;2.30;;
16965;SDS011;8599;47.852;12.070;2022-09-17T06:04:11;3.63;;;2.70;;
16965;SDS011;8599;47.852;12.070;2022-09-17T06:06:38;3.53;;;2.10;;
16965;SDS011;8599;47.852;12.070;2022-09-17T06:09:06;2.20;;;1.70;;
16965;SDS011;8599;47.852;12.070;2022-09-17T06:11:34;2.13;;;1.93;;
16965;SDS011;8599;47.852;12.070;2022-09-17T06:14:02;2.53;;;2.00;;
16965;SDS011;8599;47.852;12.070;2022-09-17T06:16:29;2.73;;;1.87;;
16965;SDS011;8599;47.852;12.070;2022-09-17T06:18:56;2.83;;;1.90;;
16965;SDS011;8599;47.852;12.070;2022-09-17T06:21:23;6.70;;;1.80;;
16965;SDS011;8599;47.852;12.070;2022-09-17T06:23:49;9.40;;;3.37;;
16965;SDS011;8599;47.852;12.070;2022-09-17T06:26:17;4.03;;;2.10;;
16965;SDS011;8599;47.852;12.070;2022-09-17T06:28:45;6.00;;;2.30;;
16965;SDS011;8599;47.852;12.070;2022-09-17T06:31:12;7.63;;;1.93;;
16965;SDS011;8599;47.852;12.070;2022-09-17T06:33:39;2.20;;;1.80;;
16965;SDS011;8599;47.852;12.070;2022-09-17T06:36:06;3.47;;;2.00;;
16965;SDS011;8599;47.852;12.070;2022-09-17T06:38:36;2.60;;;1.70;;
16965;SDS011;8599;47.852;12.070;2022-09-17T06:41:03;1.93;;;1.60;;
16965;SDS011;8599;47.852;12.070;2022-09-17T06:43:30;3.47;;;2.07;;
16965;SDS011;8599;47.852;12.070;2022-09-17T06:45:58;3.93;;;1.80;;
16965;SDS011;8599;47.852;12.070;2022-09-17T06:48:27;17.13;;;2.83;;
16965;SDS011;8599;47.852;12.070;2022-09-17T06:50:55;6.27;;;2.30;;
16965;SDS011;8599;47.852;12.070;2022-09-17T06:53:26;3.17;;;2.10;;
16965;SDS011;8599;47.852;12.070;2022-09-17T06:55:55;8.93;;;1.93;;
16965;SDS011;8599;47.852;12.070;2022-09-17T06:58:22;2.87;;;2.00;;
16965;SDS011;8599;47.852;12.070;2022-09-17T07:00:49;6.33;;;2.23;;
16965;SDS011;8599;47.852;12.070;2022-09-17T07:03:17;5.20;;;1.80;;
16965;SDS011;8599;47.852;12.070;2022-09-17T07:05:44;5.23;;;2.23;;
16965;SDS011;8599;47.852;12.070;2022-09-17T07:08:11;5.13;;;2.50;;
16965;SDS011;8599;47.852;12.070;2022-09-17T07:10:37;2.70;;;1.70;;
16965;SDS011;8599;47.852;12.070;2022-09-17T07:13:05;4.90;;;1.90;;
16965;SDS011;8599;47.852;12.070;2022-09-17T07:15:32;6.67;;;2.33;;
16965;SDS011;8599;47.852;12.070;2022-09-17T07:17:59;4.17;;;2.00;;
16965;SDS011;8599;47.852;12.070;2022-09-17T07:20:34;6.60;;;2.10;;
16965;SDS011;8599;47.852;12.070;2022-09-17T07:23:01;6.10;;;2.57;;
16965;SDS011;8599;47.852;12.070;2022-09-17T07:25:28;4.23;;;2.10;;
16965;SDS011;8599;47.852;12.070;2022-09-17T07:27:55;2.53;;;1.93;;
16965;SDS011;8599;47.852;12.070;2022-09-17T07:30:21;4.43;;;1.87;;
16965;SDS011;8599;47.852;12.070;2022-09-17T07:32:48;4.87;;;1.93;;
16965;SDS011;8599;47.852;12.070;2022-09-17T07:35:15;6.00;;;2.10;;
16965;SDS011;8599;47.852;12.070;2022-09-17T07:37:43;3.57;;;1.43;;
16965;SDS011;8599;47.852;12.070;2022-09-17T07:40:11;3.67;;;1.40;;
16965;SDS011;8599;47.852;12.070;2022-09-17T07:42:38;7.87;;;1.53;;
16965;SDS011;8599;47.852;12.070;2022-09-17T07:45:05;2.80;;;1.73;;
16965;SDS011;8599;47.852;12.070;2022-09-17T07:47:36;4.53;;;1.27;;
16965;SDS011;8599;47.852;12.070;2022-09-17T07:50:04;4.50;;;0.93;;
16965;SDS011;8599;47.852;12.070;2022-09-17T07:52:32;3.13;;;1.13;;
16965;SDS011;8599;47.852;12.070;2022-09-17T07:55:00;5.43;;;1.03;;
16965;SDS011;8599;47.852;12.070;2022-09-17T07:57:27;1.30;;;0.70;;
16965;SDS011;8599;47.852;12.070;2022-09-17T07:59:54;2.57;;;0.83;;
16965;SDS011;8599;47.852;12.070;2022-09-17T08:02:20;4.00;;;0.90;;
16965;SDS011;8599;47.852;12.070;2022-09-17T08:04:47;6.97;;;1.10;;
16965;SDS011;8599;47.852;12.070;2022-09-17T08:07:14;2.67;;;0.70;;
16965;SDS011;8599;47.852;12.070;2022-09-17T08:09:41;1.40;;;0.73;;
16965;SDS011;8599;47.852;12.070;2022-09-17T08:12:09;3.07;;;1.10;;
16965;SDS011;8599;47.852;12.070;2022-09-17T08:14:36;5.63;;;1.33;;
16965;SDS011;8599;47.852;12.070;2022-09-17T08:17:05;0.70;;;0.70;;
16965;SDS011;8599;47.852;12.070;2022-09-17T08:19:32;3.93;;;1.00;;
16965;SDS011;8599;47.852;12.070;2022-09-17T08:21:59;3.63;;;0.93;;
16965;SDS011;8599;47.852;12.070;2022-09-17T08:24:26;3.07;;;0.90;;
16965;SDS011;8599;47.852;12.070;2022-09-17T08:26:53;4.50;;;0.93;;
16965;SDS011;8599;47.852;12.070;2022-09-17T08:29:21;3.43;;;1.27;;
16965;SDS011;8599;47.852;12.070;2022-09-17T08:31:48;3.27;;;1.10;;
16965;SDS011;8599;47.852;12.070;2022-09-17T08:34:14;6.63;;;1.10;;
16965;SDS011;8599;47.852;12.070;2022-09-17T08:36:41;3.13;;;1.07;;
16965;SDS011;8599;47.852;12.070;2022-09-17T08:39:08;2.90;;;0.97;;
16965;SDS011;8599;47.852;12.070;2022-09-17T08:41:41;7.63;;;1.00;;
16965;SDS011;8599;47.852;12.070;2022-09-17T08:44:25;2.30;;;1.33;;
16965;SDS011;8599;47.852;12.070;2022-09-17T08:46:58;2.63;;;0.97;;
16965;SDS011;8599;47.852;12.070;2022-09-17T08:49:33;4.47;;;1.37;;
16965;SDS011;8599;47.852;12.070;2022-09-17T08:52:07;6.87;;;1.37;;
16965;SDS011;8599;47.852;12.070;2022-09-17T08:54:52;2.97;;;1.23;;
16965;SDS011;8599;47.852;12.070;2022-09-17T08:57:24;2.97;;;1.10;;
16965;SDS011;8599;47.852;12.070;2022-09-17T08:59:59;2.23;;;1.30;;
16965;SDS011;8599;47.852;12.070;2022-09-17T09:02:36;3.83;;;1.67;;
16965;SDS011;8599;47.852;12.070;2022-09-17T09:05:16;3.90;;;1.07;;
16965;SDS011;8599;47.852;12.070;2022-09-17T09:07:47;8.03;;;1.50;;
16965;SDS011;8599;47.852;12.070;2022-09-17T09:10:18;5.73;;;1.13;;
16965;SDS011;8599;47.852;12.070;2022-09-17T09:12:47;3.57;;;1.10;;
16965;SDS011;8599;47.852;12.070;2022-09-17T09:15:20;4.07;;;1.60;;
16965;SDS011;8599;47.852;12.070;2022-09-17T09:17:54;4.00;;;1.10;;
16965;SDS011;8599;47.852;12.070;2022-09-17T09:20:29;2.43;;;1.00;;
16965;SDS011;8599;47.852;12.070;2022-09-17T09:23:02;5.33;;;1.83;;
16965;SDS011;8599;47.852;12.070;2022-09-17T09:25:36;3.97;;;1.50;;
16965;SDS011;8599;47.852;12.070;2022-09-17T09:28:14;2.27;;;1.37;;
16965;SDS011;8599;47.852;12.070;2022-09-17T09:31:00;2.17;;;1.10;;
16965;SDS011;8599;47.852;12.070;2022-09-17T09:33:32;7.80;;;1.30;;
16965;SDS011;8599;47.852;12.070;2022-09-17T09:36:04;6.33;;;1.53;;
16965;SDS011;8599;47.852;12.070;2022-09-17T09:38:33;3.80;;;1.17;;
16965;SDS011;8599;47.852;12.070;2022-09-17T09:41:07;4.40;;;1.23;;
16965;SDS011;8599;47.852;12.070;2022-09-17T09:43:38;2.90;;;1.30;;
16965;SDS011;8599;47.852;12.070;2022-09-17T09:46:17;5.07;;;1.50;;
16965;SDS011;8599;47.852;12.070;2022-09-17T09:49:03;4.70;;;1.30;;
16965;SDS011;8599;47.852;12.070;2022-09-17T09:51:40;7.27;;;1.30;;
16965;SDS011;8599;47.852;12.070;2022-09-17T09:54:19;3.03;;;1.33;;
16965;SDS011;8599;47.852;12.070;2022-09-17T09:56:57;4.00;;;1.10;;
16965;SDS011;8599;47.852;12.070;2022-09-17T09:59:30;3.33;;;1.10;;
16965;SDS011;8599;47.852;12.070;2022-09-17T10:01:58;4.33;;;1.23;;
16965;SDS011;8599;47.852;12.070;2022-09-17T10:04:26;6.23;;;1.43;;
16965;SDS011;8599;47.852;12.070;2022-09-17T10:06:54;6.50;;;1.47;;
16965;SDS011;8599;47.852;12.070;2022-09-17T10:09:27;6.53;;;1.27;;
16965;SDS011;8599;47.852;12.070;2022-09-17T10:14:42;8.20;;;1.43;;
16965;SDS011;8599;47.852;12.070;2022-09-17T10:17:13;9.03;;;1.53;;
16965;SDS011;8599;47.852;12.070;2022-09-17T10:19:42;5.90;;;1.60;;
16965;SDS011;8599;47.852;12.070;2022-09-17T10:22:17;3.70;;;1.40;;
16965;SDS011;8599;47.852;12.070;2022-09-17T10:24:48;4.37;;;1.10;;
16965;SDS011;8599;47.852;12.070;2022-09-17T10:27:17;3.17;;;1.10;;
16965;SDS011;8599;47.852;12.070;2022-09-17T10:29:47;5.00;;;1.50;;
16965;SDS011;8599;47.852;12.070;2022-09-17T10:32:17;4.73;;;1.23;;
16965;SDS011;8599;47.852;12.070;2022-09-17T10:34:56;5.33;;;1.93;;
16965;SDS011;8599;47.852;12.070;2022-09-17T10:37:31;6.23;;;1.17;;
16965;SDS011;8599;47.852;12.070;2022-09-17T10:40:00;7.40;;;1.20;;
16965;SDS011;8599;47.852;12.070;2022-09-17T10:42:48;7.37;;;1.60;;
16965;SDS011;8599;47.852;12.070;2022-09-17T10:45:22;6.77;;;1.30;;
16965;SDS011;8599;47.852;12.070;2022-09-17T10:47:51;6.77;;;1.40;;
16965;SDS011;8599;47.852;12.070;2022-09-17T10:50:20;8.53;;;2.87;;
16965;SDS011;8599;47.852;12.070;2022-09-17T10:52:49;5.67;;;1.90;;
16965;SDS011;8599;47.852;12.070;2022-09-17T10:55:21;7.03;;;3.13;;
16965;SDS011;8599;47.852;12.070;2022-09-17T11:00:47;8.23;;;3.43;;
16965;SDS011;8599;47.852;12.070;2022-09-17T11:06:25;5.73;;;1.20;;
16965;SDS011;8599;47.852;12.070;2022-09-17T11:09:16;4.10;;;1.90;;
16965;SDS011;8599;47.852;12.070;2022-09-17T11:11:54;4.73;;;1.20;;
16965;SDS011;8599;47.852;12.070;2022-09-17T11:14:37;5.13;;;1.53;;
16965;SDS011;8599;47.852;12.070;2022-09-17T11:17:21;2.10;;;0.90;;
16965;SDS011;8599;47.852;12.070;2022-09-17T11:20:03;5.57;;;1.23;;
16965;SDS011;8599;47.852;12.070;2022-09-17T11:22:43;3.50;;;1.43;;
16965;SDS011;8599;47.852;12.070;2022-09-17T11:25:23;2.47;;;1.20;;
16965;SDS011;8599;47.852;12.070;2022-09-17T11:28:00;5.80;;;1.37;;
16965;SDS011;8599;47.852;12.070;2022-09-17T11:30:38;8.93;;;1.63;;
16965;SDS011;8599;47.852;12.070;2022-09-17T11:33:17;5.00;;;1.77;;
16965;SDS011;8599;47.852;12.070;2022-09-17T11:36:00;3.77;;;1.40;;
16965;SDS011;8599;47.852;12.070;2022-09-17T11:38:33;3.53;;;1.40;;
16965;SDS011;8599;47.852;12.070;2022-09-17T11:41:05;3.07;;;1.43;;
16965;SDS011;8599;47.852;12.070;2022-09-17T11:43:36;4.37;;;1.97;;
16965;SDS011;8599;47.852;12.070;2022-09-17T11:46:07;8.90;;;2.10;;
16965;SDS011;8599;47.852;12.070;2022-09-17T11:48:42;1.87;;;1.57;;
16965;SDS011;8599;47.852;12.070;2022-09-17T11:51:23;6.43;;;1.60;;
16965;SDS011;8599;47.852;12.070;2022-09-17T11:53:54;7.60;;;2.20;;
16965;SDS011;8599;47.852;12.070;2022-09-17T11:56:28;4.77;;;2.87;;
16965;SDS011;8599;47.852;12.070;2022-09-17T11:59:01;4.87;;;1.70;;
16965;SDS011;8599;47.852;12.070;2022-09-17T12:01:33;8.53;;;1.83;;
16965;SDS011;8599;47.852;12.070;2022-09-17T12:04:08;5.10;;;2.00;;
16965;SDS011;8599;47.852;12.070;2022-09-17T12:06:58;4.10;;;1.60;;
16965;SDS011;8599;47.852;12.070;2022-09-17T12:09:31;10.80;;;3.97;;
16965;SDS011;8599;47.852;12.070;2022-09-17T12:12:03;4.57;;;1.80;;
16965;SDS011;8599;47.852;12.070;2022-09-17T12:14:37;5.10;;;1.83;;
16965;SDS011;8599;47.852;12.070;2022-09-17T12:17:10;5.43;;;2.00;;
16965;SDS011;8599;47.852;12.070;2022-09-17T12:19:42;12.60;;;5.07;;
16965;SDS011;8599;47.852;12.070;2022-09-17T12:22:16;10.70;;;4.50;;
16965;SDS011;8599;47.852;12.070;2022-09-17T12:24:46;5.43;;;2.10;;
16965;SDS011;8599;47.852;12.070;2022-09-17T12:27:17;11.67;;;5.37;;
16965;SDS011;8599;47.852;12.070;2022-09-17T12:30:05;7.20;;;2.97;;
16965;SDS011;8599;47.852;12.070;2022-09-17T12:32:40;4.67;;;1.77;;
16965;SDS011;8599;47.852;12.070;2022-09-17T12:35:27;2.77;;;1.20;;
16965;SDS011;8599;47.852;12.070;2022-09-17T12:38:26;4.53;;;1.50;;
16965;SDS011;8599;47.852;12.070;2022-09-17T12:41:14;3.03;;;0.93;;
16965;SDS011;8599;47.852;12.070;2022-09-17T12:43:49;5.70;;;1.90;;
16965;SDS011;8599;47.852;12.070;2022-09-17T12:46:26;5.07;;;2.17;;
16965;SDS011;8599;47.852;12.070;2022-09-17T12:49:19;4.50;;;2.53;;
16965;SDS011;8599;47.852;12.070;2022-09-17T12:52:00;1.37;;;0.90;;
16965;SDS011;8599;47.852;12.070;2022-09-17T12:57:35;5.87;;;2.87;;
16965;SDS011;8599;47.852;12.070;2022-09-17T13:00:10;7.70;;;3.10;;
16965;SDS011;8599;47.852;12.070;2022-09-17T13:02:39;5.27;;;1.50;;
16965;SDS011;8599;47.852;12.070;2022-09-17T13:08:24;4.47;;;1.77;;
16965;SDS011;8599;47.852;12.070;2022-09-17T13:11:19;2.27;;;1.30;;
16965;SDS011;8599;47.852;12.070;2022-09-17T13:14:15;6.53;;;2.60;;
16965;SDS011;8599;47.852;12.070;2022-09-17T13:16:45;6.03;;;1.37;;
16965;SDS011;8599;47.852;12.070;2022-09-17T13:19:19;2.87;;;1.50;;
16965;SDS011;8599;47.852;12.070;2022-09-17T13:21:58;3.53;;;1.00;;
16965;SDS011;8599;47.852;12.070;2022-09-17T13:24:28;2.80;;;0.93;;
16965;SDS011;8599;47.852;12.070;2022-09-17T13:26:58;4.30;;;1.53;;
16965;SDS011;8599;47.852;12.070;2022-09-17T13:38:16;2.70;;;1.37;;
16965;SDS011;8599;47.852;12.070;2022-09-17T13:40:44;3.13;;;1.50;;
16965;SDS011;8599;47.852;12.070;2022-09-17T13:43:13;4.67;;;2.00;;
16965;SDS011;8599;47.852;12.070;2022-09-17T13:48:36;5.73;;;2.40;;
16965;SDS011;8599;47.852;12.070;2022-09-17T13:54:34;7.30;;;3.40;;
16965;SDS011;8599;47.852;12.070;2022-09-17T13:57:04;6.03;;;2.43;;
16965;SDS011;8599;47.852;12.070;2022-09-17T13:59:35;6.47;;;2.20;;
16965;SDS011;8599;47.852;12.070;2022-09-17T14:02:18;5.90;;;2.43;;
16965;SDS011;8599;47.852;12.070;2022-09-17T14:08:08;3.40;;;1.40;;
16965;SDS011;8599;47.852;12.070;2022-09-17T14:10:49;2.93;;;1.20;;
16965;SDS011;8599;47.852;12.070;2022-09-17T14:13:24;2.93;;;1.30;;
16965;SDS011;8599;47.852;12.070;2022-09-17T14:16:31;2.90;;;1.40;;
16965;SDS011;8599;47.852;12.070;2022-09-17T14:19:17;2.93;;;1.57;;
16965;SDS011;8599;47.852;12.070;2022-09-17T14:21:56;4.20;;;1.50;;
16965;SDS011;8599;47.852;12.070;2022-09-17T14:24:33;3.50;;;1.67;;
16965;SDS011;8599;47.852;12.070;2022-09-17T14:27:10;2.70;;;1.57;;
16965;SDS011;8599;47.852;12.070;2022-09-17T14:29:42;3.93;;;2.90;;
16965;SDS011;8599;47.852;12.070;2022-09-17T14:32:36;6.27;;;2.63;;
16965;SDS011;8599;47.852;12.070;2022-09-17T14:35:19;4.67;;;1.67;;
16965;SDS011;8599;47.852;12.070;2022-09-17T14:37:51;4.17;;;1.30;;
16965;SDS011;8599;47.852;12.070;2022-09-17T14:40:22;2.47;;;1.43;;
16965;SDS011;8599;47.852;12.070;2022-09-17T14:42:51;2.10;;;1.50;;
16965;SDS011;8599;47.852;12.070;2022-09-17T14:45:22;2.70;;;1.20;;
16965;SDS011;8599;47.852;12.070;2022-09-17T14:50:46;3.43;;;1.00;;
16965;SDS011;8599;47.852;12.070;2022-09-17T14:53:13;3.13;;;0.80;;
16965;SDS011;8599;47.852;12.070;2022-09-17T14:55:42;3.57;;;1.43;;
16965;SDS011;8599;47.852;12.070;2022-09-17T15:01:01;5.23;;;1.20;;
16965;SDS011;8599;47.852;12.070;2022-09-17T15:03:28;1.40;;;1.30;;
16965;SDS011;8599;47.852;12.070;2022-09-17T15:05:56;4.80;;;1.47;;
16965;SDS011;8599;47.852;12.070;2022-09-17T15:08:24;3.10;;;1.00;;
16965;SDS011;8599;47.852;12.070;2022-09-17T15:10:53;1.87;;;0.90;;
16965;SDS011;8599;47.852;12.070;2022-09-17T15:13:24;0.73;;;0.73;;
16965;SDS011;8599;47.852;12.070;2022-09-17T15:15:54;2.47;;;0.83;;
16965;SDS011;8599;47.852;12.070;2022-09-17T15:18:28;1.47;;;0.53;;
16965;SDS011;8599;47.852;12.070;2022-09-17T15:21:00;0.70;;;0.60;;
16965;SDS011;8599;47.852;12.070;2022-09-17T15:23:29;0.80;;;0.80;;
16965;SDS011;8599;47.852;12.070;2022-09-17T15:25:59;0.93;;;0.80;;
16965;SDS011;8599;47.852;12.070;2022-09-17T15:28:29;0.80;;;0.50;;
16965;SDS011;8599;47.852;12.070;2022-09-17T15:30:59;0.80;;;0.80;;
16965;SDS011;8599;47.852;12.070;2022-09-17T15:33:26;2.73;;;0.93;;
16965;SDS011;8599;47.852;12.070;2022-09-17T15:35:58;1.23;;;0.83;;
16965;SDS011;8599;47.852;12.070;2022-09-17T15:38:32;2.87;;;1.00;;
16965;SDS011;8599;47.852;12.070;2022-09-17T15:41:11;2.70;;;1.20;;
16965;SDS011;8599;47.852;12.070;2022-09-17T15:43:49;1.17;;;0.83;;
16965;SDS011;8599;47.852;12.070;2022-09-17T15:46:20;2.43;;;1.27;;
16965;SDS011;8599;47.852;12.070;2022-09-17T15:48:50;2.90;;;1.30;;
16965;SDS011;8599;47.852;12.070;2022-09-17T15:51:23;1.47;;;0.90;;
16965;SDS011;8599;47.852;12.070;2022-09-17T15:53:52;2.97;;;1.47;;
16965;SDS011;8599;47.852;12.070;2022-09-17T15:56:21;2.30;;;2.00;;